createdAt,value
2022-11-27T00:02:08.671Z,6.80
2022-11-27T00:04:42.933Z,7.07
2022-11-27T00:07:09.669Z,7.07
2022-11-27T00:09:36.330Z,6.70
2022-11-27T00:12:03.378Z,6.80
2022-11-27T00:14:30.164Z,6.67
2022-11-27T00:16:57.815Z,6.57
2022-11-27T00:19:24.752Z,6.67
2022-11-27T00:21:54.653Z,6.53
2022-11-27T00:24:26.775Z,6.43
2022-11-27T00:26:53.499Z,6.37
2022-11-27T00:29:22.854Z,6.13
2022-11-27T00:31:49.514Z,6.13
2022-11-27T00:34:16.290Z,6.17
2022-11-27T00:36:47.866Z,6.37
2022-11-27T00:39:14.896Z,6.33
2022-11-27T00:41:41.530Z,6.17
2022-11-27T00:44:08.299Z,6.33
2022-11-27T00:46:35.497Z,6.17
2022-11-27T00:49:03.332Z,6.17
2022-11-27T00:51:30.360Z,6.43
2022-11-27T00:53:57.186Z,5.83
2022-11-27T00:56:28.790Z,6.23
2022-11-27T00:58:55.572Z,5.63
2022-11-27T01:01:27.674Z,6.07
2022-11-27T01:04:04.124Z,6.10
2022-11-27T01:06:31.051Z,6.33
2022-11-27T01:08:58.203Z,6.30
2022-11-27T01:11:29.276Z,5.90
2022-11-27T01:13:56.997Z,5.30
2022-11-27T01:16:24.952Z,5.97
2022-11-27T01:18:51.898Z,5.57
2022-11-27T01:21:23.676Z,5.73
2022-11-27T01:23:50.468Z,5.47
2022-11-27T01:26:23.290Z,6.10
2022-11-27T01:28:53.920Z,5.13
2022-11-27T01:31:22.597Z,5.27
2022-11-27T01:33:55.393Z,5.57
2022-11-27T01:36:22.061Z,5.70
2022-11-27T01:38:48.821Z,5.23
2022-11-27T01:41:23.131Z,5.17
2022-11-27T01:43:50.694Z,5.43
2022-11-27T01:46:58.828Z,5.23
2022-11-27T01:49:43.338Z,5.10
2022-11-27T01:52:11.716Z,5.30
2022-11-27T01:55:10.713Z,5.40
2022-11-27T01:57:41.531Z,5.30
2022-11-27T02:00:09.524Z,4.90
2022-11-27T02:02:36.290Z,4.80
2022-11-27T02:05:03.002Z,5.07
2022-11-27T02:07:32.768Z,4.93
2022-11-27T02:09:59.535Z,4.90
2022-11-27T02:13:07.875Z,5.30
2022-11-27T02:16:18.094Z,4.33
2022-11-27T02:18:51.247Z,4.90
2022-11-27T02:21:56.435Z,4.93
2022-11-27T02:24:43.566Z,4.80
2022-11-27T02:27:48.326Z,4.90
2022-11-27T02:30:15.296Z,4.80
2022-11-27T02:33:05.028Z,4.87
2022-11-27T02:35:34.515Z,4.87
2022-11-27T02:38:32.847Z,4.67
2022-11-27T02:41:12.851Z,4.93
2022-11-27T02:43:41.799Z,5.13
2022-11-27T02:46:09.109Z,4.50
2022-11-27T02:48:58.012Z,4.73
2022-11-27T02:51:27.635Z,4.40
2022-11-27T02:53:58.390Z,4.57
2022-11-27T02:56:26.460Z,4.40
2022-11-27T02:58:53.211Z,4.03
2022-11-27T03:01:20.479Z,4.43
2022-11-27T03:03:49.026Z,4.60
2022-11-27T03:06:23.755Z,4.13
2022-11-27T03:08:54.978Z,4.13
2022-11-27T03:11:21.895Z,4.37
2022-11-27T03:14:02.348Z,4.37
2022-11-27T03:16:42.766Z,4.40
2022-11-27T03:19:21.137Z,3.70
2022-11-27T03:21:53.508Z,4.27
2022-11-27T03:24:22.968Z,4.03
2022-11-27T03:26:49.620Z,4.20
2022-11-27T03:29:36.062Z,4.27
2022-11-27T03:32:05.800Z,4.20
2022-11-27T03:34:32.741Z,4.30
2022-11-27T03:36:59.615Z,3.93
2022-11-27T03:39:26.405Z,3.90
2022-11-27T03:42:15.008Z,4.20
2022-11-27T03:45:12.549Z,4.00
2022-11-27T03:47:51.424Z,3.90
2022-11-27T03:50:36.377Z,4.17
2022-11-27T03:53:26.591Z,3.70
2022-11-27T03:56:11.405Z,4.10
2022-11-27T03:59:27.102Z,3.67
2022-11-27T04:01:53.907Z,4.10
2022-11-27T04:04:20.673Z,3.73
2022-11-27T04:06:47.477Z,3.80
2022-11-27T04:09:14.012Z,3.83
2022-11-27T04:11:40.708Z,3.70
2022-11-27T04:14:07.450Z,3.60
2022-11-27T04:16:34.167Z,3.43
2022-11-27T04:19:00.782Z,3.77
2022-11-27T04:21:27.454Z,3.60
2022-11-27T04:23:54.137Z,3.57
2022-11-27T04:26:20.792Z,3.40
2022-11-27T04:28:47.394Z,3.47
2022-11-27T04:31:14.198Z,3.40
2022-11-27T04:33:40.989Z,3.33
2022-11-27T04:36:07.922Z,3.50
2022-11-27T04:38:34.529Z,3.53
2022-11-27T04:41:01.369Z,3.27
2022-11-27T04:43:28.884Z,3.53
2022-11-27T04:45:55.596Z,3.23
2022-11-27T04:48:22.214Z,3.57
2022-11-27T04:50:52.043Z,3.40
2022-11-27T04:53:18.659Z,3.20
2022-11-27T04:55:47.950Z,3.30
2022-11-27T04:58:15.157Z,3.10
2022-11-27T05:00:41.794Z,3.40
2022-11-27T05:03:08.674Z,3.23
2022-11-27T05:05:35.420Z,3.00
2022-11-27T05:08:02.584Z,2.83
2022-11-27T05:10:32.409Z,2.97
2022-11-27T05:12:59.010Z,2.80
2022-11-27T05:15:25.683Z,3.23
2022-11-27T05:17:52.369Z,3.03
2022-11-27T05:20:19.053Z,3.07
2022-11-27T05:22:46.295Z,2.67
2022-11-27T05:25:14.596Z,3.00
2022-11-27T05:27:41.348Z,2.90
2022-11-27T05:30:08.654Z,2.73
2022-11-27T05:32:37.110Z,2.93
2022-11-27T05:35:06.718Z,3.13
2022-11-27T05:37:33.423Z,3.00
2022-11-27T05:40:00.149Z,3.10
2022-11-27T05:42:27.002Z,3.13
2022-11-27T05:44:58.017Z,2.70
2022-11-27T05:47:25.134Z,2.70
2022-11-27T05:49:54.780Z,3.03
2022-11-27T05:52:21.344Z,2.77
2022-11-27T05:54:48.061Z,2.70
2022-11-27T05:57:14.793Z,2.57
2022-11-27T05:59:41.458Z,2.73
2022-11-27T06:02:13.865Z,2.53
2022-11-27T06:04:46.379Z,2.90
2022-11-27T06:07:13.115Z,2.40
2022-11-27T06:09:39.851Z,2.90
2022-11-27T06:12:09.033Z,2.60
2022-11-27T06:14:35.795Z,2.77
2022-11-27T06:17:02.732Z,2.70
2022-11-27T06:19:33.179Z,2.77
2022-11-27T06:21:59.766Z,2.77
2022-11-27T06:24:26.719Z,2.50
2022-11-27T06:26:53.376Z,3.07
2022-11-27T06:29:20.015Z,2.87
2022-11-27T06:31:46.696Z,2.70
2022-11-27T06:34:13.251Z,2.70
2022-11-27T06:36:42.542Z,2.90
2022-11-27T06:39:10.170Z,2.60
2022-11-27T06:41:36.684Z,2.60
2022-11-27T06:44:03.338Z,2.90
2022-11-27T06:46:30.174Z,2.63
2022-11-27T06:48:56.906Z,2.63
2022-11-27T06:51:27.983Z,2.30
2022-11-27T06:53:54.583Z,2.63
2022-11-27T06:56:24.877Z,2.67
2022-11-27T06:58:55.745Z,2.60
2022-11-27T07:01:22.992Z,2.60
2022-11-27T07:03:49.555Z,3.00
2022-11-27T07:06:19.410Z,2.50
2022-11-27T07:08:47.982Z,2.70
2022-11-27T07:11:18.440Z,2.50
2022-11-27T07:13:49.142Z,2.40
2022-11-27T07:16:15.846Z,2.50
2022-11-27T07:18:44.082Z,2.60
2022-11-27T07:21:10.823Z,2.50
2022-11-27T07:23:37.575Z,2.27
2022-11-27T07:26:11.566Z,2.30
2022-11-27T07:28:38.274Z,2.57
2022-11-27T07:31:05.059Z,2.40
2022-11-27T07:33:31.752Z,2.50
2022-11-27T07:36:05.798Z,2.57
2022-11-27T07:38:32.299Z,2.40
2022-11-27T07:41:05.566Z,2.40
2022-11-27T07:43:32.924Z,2.80
2022-11-27T07:46:02.000Z,2.27
2022-11-27T07:48:28.621Z,2.50
2022-11-27T07:50:55.163Z,2.30
2022-11-27T07:53:21.692Z,2.30
2022-11-27T07:55:48.247Z,2.60
2022-11-27T07:58:14.864Z,2.30
2022-11-27T08:00:41.426Z,2.30
2022-11-27T08:03:08.125Z,2.77
2022-11-27T08:05:35.536Z,2.47
2022-11-27T08:08:04.222Z,2.10
2022-11-27T08:10:37.664Z,2.30
2022-11-27T08:13:04.356Z,2.20
2022-11-27T08:15:31.009Z,2.07
2022-11-27T08:17:57.607Z,2.40
2022-11-27T08:20:24.219Z,2.30
2022-11-27T08:22:50.848Z,1.90
2022-11-27T08:25:17.443Z,2.30
2022-11-27T08:27:44.140Z,2.47
2022-11-27T08:30:11.067Z,2.30
2022-11-27T08:32:41.427Z,2.07
2022-11-27T08:35:08.328Z,2.37
2022-11-27T08:37:35.131Z,3.50
2022-11-27T08:40:01.955Z,3.67
2022-11-27T08:42:28.650Z,3.10
2022-11-27T08:44:55.334Z,3.40
2022-11-27T08:47:21.803Z,3.07
2022-11-27T08:49:48.509Z,3.50
2022-11-27T08:52:15.004Z,3.30
2022-11-27T08:54:41.869Z,3.07
2022-11-27T08:57:08.647Z,3.37
2022-11-27T08:59:35.199Z,3.57
2022-11-27T09:02:01.744Z,2.87
2022-11-27T09:04:29.001Z,3.10
2022-11-27T09:07:00.393Z,3.00
2022-11-27T09:09:26.996Z,2.90
2022-11-27T09:11:56.538Z,3.00
2022-11-27T09:14:23.103Z,2.80
2022-11-27T09:16:49.705Z,2.97
2022-11-27T09:19:17.140Z,2.83
2022-11-27T09:21:43.711Z,2.87
2022-11-27T09:24:10.289Z,2.87
2022-11-27T09:26:36.819Z,2.80
2022-11-27T09:29:04.073Z,2.77
2022-11-27T09:31:31.037Z,3.10
2022-11-27T09:33:58.481Z,2.70
2022-11-27T09:36:25.843Z,2.70
2022-11-27T09:38:52.880Z,2.33
2022-11-27T09:41:42.049Z,2.60
2022-11-27T09:44:20.638Z,2.90
2022-11-27T09:46:47.228Z,2.40
2022-11-27T09:49:41.959Z,2.73
2022-11-27T09:52:22.812Z,2.50
2022-11-27T09:54:54.912Z,2.40
2022-11-27T09:57:27.074Z,2.87
2022-11-27T09:59:53.659Z,2.50
2022-11-27T10:02:31.225Z,2.37
2022-11-27T10:05:13.290Z,2.70
2022-11-27T10:08:11.225Z,2.57
2022-11-27T10:10:41.213Z,2.60
2022-11-27T10:13:29.784Z,2.70
2022-11-27T10:16:42.892Z,2.73
2022-11-27T10:19:17.049Z,2.60
2022-11-27T10:21:47.577Z,2.70
2022-11-27T10:24:20.137Z,2.30
2022-11-27T10:26:48.170Z,2.73
2022-11-27T10:29:14.714Z,2.80
2022-11-27T10:31:53.348Z,2.90
2022-11-27T10:34:52.397Z,2.73
2022-11-27T10:37:24.844Z,2.50
2022-11-27T10:40:08.747Z,2.70
2022-11-27T10:42:39.193Z,3.00
2022-11-27T10:45:23.882Z,2.60
2022-11-27T10:47:50.710Z,2.50
2022-11-27T10:50:17.817Z,2.73
2022-11-27T10:52:59.971Z,2.90
2022-11-27T10:55:32.616Z,2.60
2022-11-27T10:58:14.322Z,2.60
2022-11-27T11:00:40.893Z,2.60
2022-11-27T11:03:15.974Z,2.60
2022-11-27T11:06:04.795Z,2.70
2022-11-27T11:08:30.129Z,2.50
2022-11-27T11:11:01.886Z,2.57
2022-11-27T11:13:40.645Z,2.83
2022-11-27T11:16:24.507Z,2.67
2022-11-27T11:18:52.997Z,2.40
2022-11-27T11:21:29.314Z,2.43
2022-11-27T11:24:02.876Z,2.83
2022-11-27T11:26:53.615Z,2.60
2022-11-27T11:29:45.875Z,2.50
2022-11-27T11:32:21.554Z,2.80
2022-11-27T11:35:00.545Z,2.90
2022-11-27T11:37:32.651Z,3.10
2022-11-27T11:40:22.593Z,3.13
2022-11-27T11:43:00.364Z,2.60
2022-11-27T11:45:31.299Z,2.23
2022-11-27T11:48:22.911Z,3.00
2022-11-27T11:51:11.127Z,2.20
2022-11-27T11:53:39.213Z,2.57
2022-11-27T11:56:33.586Z,2.53
2022-11-27T11:59:28.103Z,2.37
2022-11-27T12:02:00.525Z,2.57
2022-11-27T12:04:49.785Z,2.43
2022-11-27T12:07:58.175Z,2.57
2022-11-27T12:10:31.896Z,2.30
2022-11-27T12:13:35.865Z,2.47
2022-11-27T12:16:06.713Z,2.23
2022-11-27T12:18:45.469Z,2.53
2022-11-27T12:21:16.341Z,2.23
2022-11-27T12:23:46.837Z,2.40
2022-11-27T12:26:22.589Z,2.17
2022-11-27T12:29:07.791Z,2.23
2022-11-27T12:31:38.328Z,1.97
2022-11-27T12:34:20.682Z,2.30
2022-11-27T12:37:15.105Z,2.13
2022-11-27T12:40:22.895Z,2.50
2022-11-27T12:43:23.486Z,2.20
2022-11-27T12:45:57.428Z,2.40
2022-11-27T12:48:36.197Z,2.10
2022-11-27T12:51:21.479Z,2.50
2022-11-27T12:53:51.198Z,2.30
2022-11-27T12:56:50.218Z,2.27
2022-11-27T12:59:16.716Z,2.10
2022-11-27T13:01:45.753Z,2.33
2022-11-27T13:04:27.932Z,2.40
2022-11-27T13:07:29.786Z,2.10
2022-11-27T13:09:56.246Z,2.47
2022-11-27T13:12:28.253Z,2.10
2022-11-27T13:14:59.458Z,2.53
2022-11-27T13:17:26.361Z,2.23
2022-11-27T13:19:53.006Z,2.23
2022-11-27T13:22:27.741Z,2.20
2022-11-27T13:24:55.912Z,2.30
2022-11-27T13:27:24.627Z,2.50
2022-11-27T13:29:58.645Z,2.37
2022-11-27T13:32:27.419Z,2.50
2022-11-27T13:34:55.886Z,2.30
2022-11-27T13:37:36.885Z,2.30
2022-11-27T13:40:17.636Z,2.20
2022-11-27T13:42:45.488Z,2.43
2022-11-27T13:45:23.068Z,2.90
2022-11-27T13:47:56.431Z,2.43
2022-11-27T13:50:26.933Z,2.30
2022-11-27T13:53:04.545Z,2.60
2022-11-27T13:55:51.688Z,2.20
2022-11-27T13:58:33.218Z,2.60
2022-11-27T14:01:00.150Z,2.37
2022-11-27T14:03:28.446Z,2.13
2022-11-27T14:05:55.759Z,2.30
2022-11-27T14:08:33.890Z,2.63
2022-11-27T14:11:14.111Z,2.40
2022-11-27T14:13:48.308Z,2.10
2022-11-27T14:16:36.370Z,2.47
2022-11-27T14:19:05.672Z,2.43
2022-11-27T14:21:42.811Z,2.83
2022-11-27T14:24:36.865Z,2.80
2022-11-27T14:27:14.203Z,2.93
2022-11-27T14:29:43.710Z,2.83
2022-11-27T14:32:12.143Z,2.73
2022-11-27T14:34:39.407Z,2.80
2022-11-27T14:37:06.299Z,2.20
2022-11-27T14:39:37.283Z,2.57
2022-11-27T14:42:19.682Z,2.60
2022-11-27T14:44:49.361Z,2.43
2022-11-27T14:47:19.582Z,2.90
2022-11-27T14:49:46.301Z,2.63
2022-11-27T14:52:15.555Z,2.17
2022-11-27T14:55:03.475Z,2.67
2022-11-27T14:57:30.181Z,2.20
2022-11-27T15:00:18.525Z,2.30
2022-11-27T15:02:46.876Z,2.27
2022-11-27T15:05:28.874Z,2.10
2022-11-27T15:07:58.007Z,2.40
2022-11-27T15:10:29.265Z,2.57
2022-11-27T15:12:55.911Z,2.23
2022-11-27T15:15:27.675Z,2.30
2022-11-27T15:17:59.602Z,2.23
2022-11-27T15:20:36.442Z,2.10
2022-11-27T15:23:05.087Z,2.30
2022-11-27T15:25:39.615Z,2.13
2022-11-27T15:28:30.994Z,2.13
2022-11-27T15:30:57.827Z,2.07
2022-11-27T15:33:26.832Z,2.10
2022-11-27T15:35:54.748Z,2.10
2022-11-27T15:38:21.322Z,2.03
2022-11-27T15:40:57.636Z,2.20
2022-11-27T15:43:24.196Z,2.43
2022-11-27T15:45:51.222Z,2.20
2022-11-27T15:48:18.727Z,2.67
2022-11-27T15:50:49.990Z,2.57
2022-11-27T15:53:18.322Z,2.37
2022-11-27T15:55:44.958Z,2.33
2022-11-27T15:58:11.537Z,2.40
2022-11-27T16:00:38.235Z,2.40
2022-11-27T16:03:04.933Z,2.30
2022-11-27T16:05:31.675Z,2.50
2022-11-27T16:07:58.311Z,2.10
2022-11-27T16:10:25.007Z,2.70
2022-11-27T16:12:55.017Z,2.37
2022-11-27T16:15:23.571Z,2.23
2022-11-27T16:17:50.959Z,2.47
2022-11-27T16:20:17.533Z,2.20
2022-11-27T16:22:44.114Z,2.70
2022-11-27T16:25:10.701Z,2.40
2022-11-27T16:27:37.352Z,2.00
2022-11-27T16:30:04.301Z,2.23
2022-11-27T16:32:30.938Z,2.50
2022-11-27T16:34:57.542Z,2.10
2022-11-27T16:37:24.237Z,2.40
2022-11-27T16:39:50.755Z,2.30
2022-11-27T16:42:17.246Z,2.47
2022-11-27T16:44:44.426Z,2.30
2022-11-27T16:47:11.755Z,2.30
2022-11-27T16:49:38.356Z,2.33
2022-11-27T16:52:04.871Z,2.53
2022-11-27T16:54:31.468Z,2.20
2022-11-27T16:56:58.175Z,2.50
2022-11-27T16:59:24.698Z,2.30
2022-11-27T17:01:51.626Z,2.20
2022-11-27T17:04:19.162Z,2.30
2022-11-27T17:06:45.843Z,2.30
2022-11-27T17:09:12.375Z,2.00
2022-11-27T17:11:42.156Z,2.10
2022-11-27T17:14:11.784Z,2.10
2022-11-27T17:16:42.583Z,2.20
2022-11-27T17:19:15.532Z,2.60
2022-11-27T17:21:42.142Z,2.43
2022-11-27T17:24:15.103Z,2.47
2022-11-27T17:26:43.135Z,2.50
2022-11-27T17:29:11.507Z,2.60
2022-11-27T17:31:38.113Z,2.40
2022-11-27T17:34:05.035Z,2.47
2022-11-27T17:36:36.486Z,2.40
2022-11-27T17:39:04.575Z,2.13
2022-11-27T17:41:31.234Z,2.33
2022-11-27T17:43:57.802Z,2.20
2022-11-27T17:46:25.846Z,2.30
2022-11-27T17:48:52.468Z,2.50
2022-11-27T17:51:18.982Z,2.40
2022-11-27T17:53:45.496Z,2.17
2022-11-27T17:56:14.627Z,2.40
2022-11-27T17:58:41.328Z,2.73
2022-11-27T18:01:08.818Z,2.53
2022-11-27T18:03:35.414Z,2.47
2022-11-27T18:06:05.618Z,1.90
2022-11-27T18:08:32.189Z,2.37
2022-11-27T18:11:04.269Z,2.27
2022-11-27T18:13:32.556Z,2.53
2022-11-27T18:16:10.400Z,2.20
2022-11-27T18:18:37.120Z,2.40
2022-11-27T18:21:08.614Z,2.20
2022-11-27T18:23:36.085Z,2.47
2022-11-27T18:26:06.999Z,2.10
2022-11-27T18:28:33.549Z,2.40
2022-11-27T18:31:13.770Z,2.00
2022-11-27T18:33:40.380Z,2.27
2022-11-27T18:36:07.714Z,4.03
2022-11-27T18:38:34.983Z,3.70
2022-11-27T18:41:28.218Z,3.43
2022-11-27T18:43:54.908Z,3.67
2022-11-27T18:46:21.720Z,3.40
2022-11-27T18:48:48.798Z,3.47
2022-11-27T18:51:19.718Z,3.17
2022-11-27T18:53:46.331Z,3.10
2022-11-27T18:56:13.577Z,2.90
2022-11-27T18:58:40.354Z,3.20
2022-11-27T19:01:21.034Z,3.00
2022-11-27T19:03:47.793Z,2.97
2022-11-27T19:06:15.027Z,3.00
2022-11-27T19:08:41.819Z,2.83
2022-11-27T19:11:10.291Z,2.50
2022-11-27T19:13:37.307Z,2.53
2022-11-27T19:16:08.424Z,2.63
2022-11-27T19:18:36.410Z,2.43
2022-11-27T19:21:10.342Z,2.80
2022-11-27T19:23:39.324Z,2.60
2022-11-27T19:26:10.089Z,2.77
2022-11-27T19:28:36.851Z,2.80
2022-11-27T19:31:08.678Z,2.77
2022-11-27T19:33:36.490Z,2.50
2022-11-27T19:36:08.644Z,2.77
2022-11-27T19:38:35.407Z,2.87
2022-11-27T19:41:02.149Z,2.70
2022-11-27T19:43:28.654Z,2.60
2022-11-27T19:45:55.213Z,2.97
2022-11-27T19:48:23.487Z,2.90
2022-11-27T19:50:51.616Z,2.77
2022-11-27T19:53:18.323Z,2.70
2022-11-27T19:55:44.842Z,2.87
2022-11-27T19:58:12.477Z,2.43
2022-11-27T20:00:39.222Z,2.40
2022-11-27T20:03:05.841Z,2.50
2022-11-27T20:05:32.334Z,2.73
2022-11-27T20:07:59.554Z,2.50
2022-11-27T20:10:26.289Z,3.13
2022-11-27T20:12:52.846Z,2.57
2022-11-27T20:15:19.593Z,2.40
2022-11-27T20:17:46.155Z,2.60
2022-11-27T20:20:13.360Z,2.60
2022-11-27T20:22:40.163Z,2.70
2022-11-27T20:25:22.178Z,2.53
2022-11-27T20:27:48.731Z,2.63
2022-11-27T20:30:15.361Z,2.40
2022-11-27T20:32:41.904Z,2.60
2022-11-27T20:35:08.759Z,2.33
2022-11-27T20:37:35.325Z,2.67
2022-11-27T20:40:01.929Z,2.50
2022-11-27T20:42:28.486Z,2.57
2022-11-27T20:44:54.985Z,2.67
2022-11-27T20:47:21.450Z,2.53
2022-11-27T20:49:47.975Z,2.30
2022-11-27T20:52:14.619Z,2.50
2022-11-27T20:54:41.169Z,2.67
2022-11-27T20:57:08.780Z,3.60
2022-11-27T20:59:35.367Z,3.07
2022-11-27T21:02:02.811Z,6.73
2022-11-27T21:04:29.454Z,6.23
2022-11-27T21:06:57.150Z,5.67
2022-11-27T21:09:24.302Z,5.00
2022-11-27T21:11:50.857Z,5.43
2022-11-27T21:14:17.488Z,5.43
2022-11-27T21:16:47.994Z,5.30
2022-11-27T21:19:22.312Z,5.37
2022-11-27T21:21:49.876Z,4.90
2022-11-27T21:24:16.706Z,4.70
2022-11-27T21:26:43.398Z,5.20
2022-11-27T21:29:10.526Z,4.47
2022-11-27T21:31:37.947Z,4.43
2022-11-27T21:34:06.342Z,4.30
2022-11-27T21:36:34.405Z,4.23
2022-11-27T21:39:01.225Z,4.77
2022-11-27T21:41:28.172Z,3.90
2022-11-27T21:43:56.428Z,4.30
2022-11-27T21:46:23.258Z,4.80
2022-11-27T21:48:50.661Z,4.10
2022-11-27T21:51:17.370Z,4.40
2022-11-27T21:53:44.776Z,4.20
2022-11-27T21:56:12.810Z,3.90
2022-11-27T21:58:39.487Z,3.80
2022-11-27T22:01:07.959Z,3.77
2022-11-27T22:03:38.601Z,4.10
2022-11-27T22:06:09.921Z,4.60
2022-11-27T22:08:36.584Z,4.23
2022-11-27T22:11:11.637Z,3.90
2022-11-27T22:13:38.346Z,3.90
2022-11-27T22:16:12.348Z,4.40
2022-11-27T22:18:39.217Z,4.37
2022-11-27T22:21:06.835Z,4.10
2022-11-27T22:23:33.408Z,3.90
2022-11-27T22:26:07.357Z,3.83
2022-11-27T22:28:37.557Z,3.97
2022-11-27T22:31:09.218Z,4.20
2022-11-27T22:33:36.993Z,3.90
2022-11-27T22:36:12.710Z,4.07
2022-11-27T22:38:40.448Z,4.20
2022-11-27T22:41:07.159Z,4.03
2022-11-27T22:43:35.464Z,4.10
2022-11-27T22:46:09.536Z,4.10
2022-11-27T22:48:36.136Z,3.83
2022-11-27T22:51:02.898Z,3.50
2022-11-27T22:53:29.512Z,4.40
2022-11-27T22:55:56.187Z,4.53
2022-11-27T22:58:22.992Z,3.83
2022-11-27T23:00:56.419Z,4.10
2022-11-27T23:03:23.106Z,4.27
2022-11-27T23:05:49.867Z,3.93
2022-11-27T23:08:16.499Z,3.97
2022-11-27T23:10:43.024Z,3.67
2022-11-27T23:13:09.519Z,3.97
2022-11-27T23:15:36.029Z,3.90
2022-11-27T23:18:02.542Z,4.17
2022-11-27T23:20:29.049Z,3.60
2022-11-27T23:22:55.588Z,4.20
2022-11-27T23:25:22.085Z,4.50
2022-11-27T23:27:48.733Z,3.93
2022-11-27T23:30:15.676Z,4.00
2022-11-27T23:32:44.033Z,4.00
2022-11-27T23:35:11.414Z,4.33
2022-11-27T23:37:37.919Z,4.17
2022-11-27T23:40:05.204Z,4.43
2022-11-27T23:42:31.825Z,4.03
2022-11-27T23:44:58.476Z,4.73
2022-11-27T23:47:25.109Z,4.43
2022-11-27T23:49:51.650Z,4.17
2022-11-27T23:52:18.284Z,4.27
2022-11-27T23:54:44.855Z,4.53
2022-11-27T23:57:11.435Z,4.43
2022-11-27T23:59:37.963Z,4.27
